Flight Track Log - Related Links

Times and Time Zones

All times are in EDT time to prevent confusion due to time zone crossing. See the SWA2601 flight status page for this flight to view local times or setup timezone preferences in your user account.

Time Position Orientation Groundspeed Altitude Reporting Facility
EDT Latitude Longitude Course Direction KTS MPH feet Rate Location/Type
Sun 10:34:30 PM 36.1192 -115.1381 74° East 213 245 3,600  Level Los Angeles Center
Sun 10:35:06 PM 36.1303 -115.0892 74° East 255 293 5,500 3,091 Climbing Los Angeles Center
Sun 10:35:36 PM 36.1342 -115.0567 82° East 242 278 7,000 2,341 Climbing Los Angeles Center
Sun 10:36:28 PM 36.1386 -114.9692 86° East 272 313 8,700 1,756 Climbing Los Angeles Center
Sun 10:37:39 PM 36.1500 -114.8594 83° East 289 333 10,600 2,075 Climbing Los Angeles Center
Sun 10:38:41 PM 36.1036 -114.7308 114° Southeast 331 381 13,300 2,274 Climbing Los Angeles Center
Sun 10:39:43 PM 36.0597 -114.6211 116° Southeast 350 403 15,300 1,867 Climbing Los Angeles Center
Sun 10:40:56 PM 36.0142 -114.5081 116° Southeast 365 420 17,500 1,911 Climbing Los Angeles Center
Sun 10:41:58 PM 35.9903 -114.3542 101° East 381 438 19,600 1,742 Climbing Los Angeles Center
Sun 10:43:00 PM 35.9689 -114.2200 101° East 396 456 21,100 1,597 Climbing Los Angeles Center
Sun 10:44:02 PM 35.9497 -114.0817 100° East 408 470 22,900 1,561 Climbing Los Angeles Center
Sun 10:45:03 PM 35.9244 -113.9167 101° East 409 471 24,300 1,317 Climbing Los Angeles Center
Sun 10:46:05 PM 35.9025 -113.7725 101° East 422 486 25,600 1,210 Climbing Los Angeles Center
Sun 10:47:07 PM 35.8792 -113.6269 101° East 430 495 26,800 677 Climbing Los Angeles Center
Sun 10:48:09 PM 35.8550 -113.4769 101° East 441 507 27,000 293 Climbing Los Angeles Center
Sun 10:49:10 PM 35.8306 -113.3236 101° East 451 519 27,400 667 Climbing Los Angeles Center
Sun 10:50:24 PM 35.8069 -113.1722 101° East 453 521 28,500 1,059 Climbing Los Angeles Center
Sun 10:51:26 PM 35.7778 -112.9919 101° East 448 516 29,800 1,403 Climbing Los Angeles Center
Sun 10:52:28 PM 35.7472 -112.8092 102° East 452 520 31,400 1,403 Climbing Los Angeles Center
Sun 10:53:30 PM 35.7231 -112.6572 101° East 452 520 32,700 968 Climbing Los Angeles Center
Sun 10:54:32 PM 35.6983 -112.5064 101° East 451 519 33,400 1,024 Climbing Los Angeles Center
Sun 10:55:33 PM 35.6719 -112.3547 102° East 452 520 34,800 780 Climbing Los Angeles Center
Sun 10:56:35 PM 35.6458 -112.2042 102° East 452 520 35,000 97 Climbing Los Angeles Center
Sun 10:57:37 PM 35.6197 -112.0525 102° East 453 521 35,000  Level Los Angeles Center
Sun 10:58:39 PM 35.5933 -111.8992 102° East 456 525 35,000  Level Los Angeles Center
Sun 10:59:40 PM 35.5872 -111.7067 92° East 470 541 35,000  Level Los Angeles Center
Sun 11:00:42 PM 35.5817 -111.5456 92° East 474 545 35,000  Level Los Angeles Center
Sun 11:01:44 PM 35.5775 -111.3847 92° East 473 544 35,000  Level Los Angeles Center
Sun 11:03:06 PM 35.5700 -111.1494 92° East 471 542 35,000  Level Albuquerque Center
Sun 11:04:07 PM 35.5653 -110.9947 92° East 473 544 35,000  Level Albuquerque Center
Sun 11:05:09 PM 35.5617 -110.8408 92° East 472 543 35,000  Level Albuquerque Center
Sun 11:06:10 PM 35.5531 -110.6592 93° East 475 547 35,000  Level Albuquerque Center
Sun 11:07:12 PM 35.5475 -110.5036 92° East 476 548 35,000  Level Albuquerque Center
Sun 11:08:13 PM 35.5408 -110.3222 93° East 477 549 35,000  Level Albuquerque Center
Sun 11:09:14 PM 35.5347 -110.1686 93° East 474 545 35,000  Level Albuquerque Center
Sun 11:10:16 PM 35.5292 -110.0133 92° East 475 547 35,000  Level Albuquerque Center
Sun 11:11:17 PM 35.5225 -109.8336 93° East 474 545 35,000  Level Albuquerque Center
Sun 11:12:19 PM 35.5156 -109.6797 93° East 473 544 35,000  Level Albuquerque Center
Sun 11:13:20 PM 35.5028 -109.5044 95° East 464 534 35,000  Level Albuquerque Center
Sun 11:14:21 PM 35.4769 -109.3542 102° East 469 540 35,000  Level Albuquerque Center
Sun 11:15:23 PM 35.4503 -109.1811 101° East 466 536 35,000  Level Albuquerque Center
Sun 11:16:24 PM 35.4256 -109.0339 102° East 464 534 35,000  Level Albuquerque Center
Sun 11:17:26 PM 35.4014 -108.8861 101° East 464 534 35,000  Level Albuquerque Center
Sun 11:18:27 PM 35.3731 -108.7122 101° East 466 536 35,000  Level Albuquerque Center
Sun 11:19:28 PM 35.3483 -108.5647 102° East 466 536 35,000 -585 Level Albuquerque Center
Sun 11:20:30 PM 35.3200 -108.3878 101° East 471 542 33,800 -2,000 Descending Albuquerque Center
Sun 11:21:31 PM 35.2953 -108.2353 101° East 478 550 30,900 -2,927 Descending Albuquerque Center
Sun 11:22:33 PM 35.2642 -108.0594 102° East 477 549 27,800 -2,585 Descending Albuquerque Center
Sun 11:23:34 PM 35.2389 -107.9128 102° East 467 537 25,600 -2,164 Descending Albuquerque Center
Sun 11:24:35 PM 35.2147 -107.7717 102° East 451 519 23,400 -2,244 Descending Albuquerque Center
Sun 11:25:45 PM 35.1822 -107.5919 102° East 429 494 20,700 -2,000 Descending Albuquerque Center
Sun 11:26:38 PM 35.1653 -107.4822 101° East 416 479 19,300 -1,878 Descending Albuquerque Center
Sun 11:27:40 PM 35.1389 -107.3483 104° East 393 452 17,100 -2,146 Descending Albuquerque Center
Sun 11:28:41 PM 35.1181 -107.2267 102° East 368 423 14,900 -2,115 Descending Albuquerque Center
Sun 11:29:42 PM 35.0964 -107.1047 102° East 366 421 12,800 -1,902 Descending Albuquerque Center
Sun 11:30:44 PM 35.0742 -106.9883 103° East 357 411 11,000 -1,415 Descending Albuquerque Center
Sun 11:31:45 PM 35.0422 -106.8669 108° East 325 374 9,900 -541 Descending Albuquerque Center
Sun 11:32:46 PM 35.0108 -106.7750 113° Southeast 305 351 9,900 -341 Level Albuquerque Center
Sun 11:33:48 PM 34.9736 -106.6925 119° Southeast 278 320 9,200 -634 Descending Albuquerque Center
Sun 11:34:49 PM 34.9594 -106.6131 102° East 252 290 8,600 -829 Descending Albuquerque Center
Sun 11:35:51 PM 34.9694 -106.5358 81° East 233 268 7,500 -878 Descending Albuquerque Center
Sun 11:36:52 PM 35.0211 -106.5236 11° North 198 228 6,800 -934 Descending Albuquerque Center
Sun 11:37:53 PM 35.0439 -106.5631 305° West 162 186 5,600 -1,180 Descending Albuquerque Center

Login

Don't have an account? Register now (free) for customized features, flight alerts, and more!